Time;durP1;ratioP1;P1;durP2;ratioP2;P2;SDS_P1;SDS_P2;PMS_P1;PMS_P2;Temp;Humidity;BMP_temperature;BMP_pressure;BME280_temperature;BME280_humidity;BME280_pressure;Samples;Min_cycle;Max_cycle;Signal;HPM_P1;HPM_P2
2024/04/25 00:01:53;;;;;;;31.50;22.08;;;281.60;2278.40;;;;;;5449935;26;20445;-71
2024/04/25 00:04:19;;;;;;;26.30;19.70;;;281.70;2278.40;;;;;;5450542;26;20014;-72
2024/04/25 00:06:45;;;;;;;25.38;19.30;;;281.70;2278.40;;;;;;5449892;26;19995;-77
2024/04/25 00:09:11;;;;;;;24.52;19.35;;;281.80;2278.40;;;;;;5450922;26;20325;-74
2024/04/25 00:11:36;;;;;;;24.95;17.65;;;256.90;2252.80;;;;;;5449432;26;20042;-71
2024/04/25 00:14:02;;;;;;;27.92;19.50;;;256.90;2252.80;;;;;;5450856;26;20003;-71
2024/04/25 00:16:28;;;;;;;34.42;23.10;;;256.90;2252.80;;;;;;5449211;26;20009;-71
2024/04/25 00:18:54;;;;;;;32.42;23.15;;;256.80;2252.80;;;;;;5450921;26;19995;-70
2024/04/25 00:21:20;;;;;;;32.95;20.73;;;256.70;2252.80;;;;;;5447820;26;19998;-73
2024/04/25 00:23:46;;;;;;;37.65;25.83;;;256.90;2252.80;;;;;;5449473;26;20543;-72
2024/04/25 00:26:12;;;;;;;31.30;21.35;;;256.90;2252.80;;;;;;5451205;26;19999;-71
2024/04/25 00:28:37;;;;;;;32.75;22.95;;;256.90;2252.80;;;;;;5438489;26;20010;-72
2024/04/25 00:31:03;;;;;;;27.95;21.35;;;281.60;2278.40;;;;;;5453510;26;19995;-84
2024/04/25 00:33:29;;;;;;;40.53;23.27;;;281.70;2278.40;;;;;;5453931;26;20594;-72
2024/04/25 00:35:55;;;;;;;36.10;23.80;;;281.70;2278.40;;;;;;5451283;26;20010;-71
2024/04/25 00:38:21;;;;;;;34.58;21.85;;;282.00;2278.40;;;;;;5452911;26;19999;-71
2024/04/25 00:40:48;;;;;;;45.05;27.20;;;281.70;2278.40;;;;;;5448808;26;19995;-72
2024/04/25 00:43:14;;;;;;;38.67;25.83;;;281.60;2278.40;;;;;;5449585;26;20002;-72
2024/04/25 00:45:40;;;;;;;34.35;24.45;;;281.60;2278.40;;;;;;5448937;26;20150;-72
2024/04/25 00:48:06;;;;;;;43.17;29.30;;;281.70;2278.40;;;;;;5450006;26;20003;-72
2024/04/25 00:50:33;;;;;;;43.25;29.60;;;281.70;2278.40;;;;;;5450243;26;19995;-72
2024/04/25 00:52:59;;;;;;;33.28;25.40;;;281.70;2278.40;;;;;;5459199;26;20027;-72
2024/04/25 00:55:26;;;;;;;32.97;24.73;;;281.70;2278.40;;;;;;5455872;26;20463;-77
2024/04/25 00:57:54;;;;;;;35.58;24.70;;;281.80;2278.40;;;;;;5453740;26;20010;-72
2024/04/25 01:00:23;;;;;;;50.30;34.92;;;281.70;2278.40;;;;;;5449898;26;19995;-72
2024/04/25 01:02:54;;;;;;;36.53;25.85;;;281.80;2278.40;;;;;;5451336;26;20047;-78
2024/04/25 01:05:21;;;;;;;49.10;30.92;;;281.70;2278.40;;;;;;5450154;26;19998;-72
2024/04/25 01:07:48;;;;;;;37.63;26.25;;;281.80;2278.40;;;;;;5451897;26;20026;-71
2024/04/25 01:10:14;;;;;;;40.45;25.73;;;281.70;2278.40;;;;;;5452548;26;20014;-71
2024/04/25 01:12:40;;;;;;;29.67;22.73;;;281.70;2278.40;;;;;;5452229;26;20002;-74
2024/04/25 01:15:06;;;;;;;35.50;23.98;;;281.70;2278.40;;;;;;5452094;26;20009;-71
2024/04/25 01:17:32;;;;;;;36.60;24.75;;;256.90;2252.80;;;;;;5461167;26;20349;-72
2024/04/25 01:19:58;;;;;;;28.13;22.08;;;256.90;2252.80;;;;;;5451457;26;19998;-72
2024/04/25 01:22:33;;;;;;;28.40;20.73;;;281.60;2278.40;;;;;;5450388;26;20010;-72
2024/04/25 01:25:00;;;;;;;25.40;17.92;;;281.70;2278.40;;;;;;5450703;26;19999;-72
2024/04/25 01:27:26;;;;;;;36.47;24.90;;;281.70;2278.40;;;;;;5450939;26;20052;-71
2024/04/25 01:29:53;;;;;;;32.35;23.23;;;281.60;2278.40;;;;;;5467994;26;20010;-72
2024/04/25 01:32:20;;;;;;;40.80;26.98;;;256.90;2252.80;;;;;;5469713;26;20368;-72
2024/04/25 01:34:46;;;;;;;35.22;27.85;;;256.90;2252.80;;;;;;5451249;26;20009;-71
2024/04/25 01:37:12;;;;;;;89.40;50.35;;;256.90;2252.80;;;;;;5450186;26;20011;-71
2024/04/25 01:39:38;;;;;;;55.28;35.25;;;281.60;2278.40;;;;;;5419244;26;20336;-72
2024/04/25 01:42:03;;;;;;;38.20;27.58;;;256.90;2252.80;;;;;;5451385;26;20044;-81
2024/04/25 01:44:29;;;;;;;30.42;23.30;;;256.90;2252.80;;;;;;5450748;26;20002;-72
2024/04/25 01:46:56;;;;;;;25.38;19.15;;;256.90;2252.80;;;;;;5450662;26;20068;-72
2024/04/25 01:49:22;;;;;;;25.38;19.98;;;256.80;2252.80;;;;;;5451249;26;20010;-82
2024/04/25 01:51:48;;;;;;;26.10;19.17;;;256.90;2252.80;;;;;;5450924;26;19998;-72
2024/04/25 01:54:14;;;;;;;27.17;19.48;;;256.90;2252.80;;;;;;5450337;26;20013;-72
2024/04/25 01:56:40;;;;;;;29.00;19.90;;;256.90;2252.80;;;;;;5449550;26;20333;-72
2024/04/25 01:59:06;;;;;;;30.95;18.92;;;256.90;2252.80;;;;;;5451264;26;19998;-83
2024/04/25 02:01:31;;;;;;;27.02;19.42;;;256.90;2252.80;;;;;;5448657;26;20002;-82
2024/04/25 02:03:58;;;;;;;25.40;19.20;;;256.90;2252.80;;;;;;5449072;26;20456;-72
2024/04/25 02:06:24;;;;;;;71.95;61.85;;;256.90;2252.80;;;;;;5449058;26;20019;-73
2024/04/25 02:08:50;;;;;;;29.63;21.58;;;256.90;2252.80;;;;;;5451350;26;20013;-72
2024/04/25 02:11:16;;;;;;;30.50;24.25;;;281.60;2278.40;;;;;;5449003;26;20007;-80
2024/04/25 02:13:41;;;;;;;30.13;21.20;;;256.90;2252.80;;;;;;5450731;26;20406;-71
2024/04/25 02:16:07;;;;;;;26.85;19.25;;;256.90;2252.80;;;;;;5447719;26;20071;-72
2024/04/25 02:18:33;;;;;;;32.17;19.85;;;256.70;2252.80;;;;;;5451191;26;20044;-71
2024/04/25 02:26:27;;;;;;;26.48;19.73;;;256.80;2252.80;;;;;;5449770;26;20013;-72
2024/04/25 02:28:53;;;;;;;27.48;18.25;;;256.80;2252.80;;;;;;5451237;26;20003;-71
2024/04/25 02:31:28;;;;;;;31.17;19.48;;;256.80;2252.80;;;;;;5449916;26;20013;-72
2024/04/25 02:33:54;;;;;;;27.65;18.02;;;256.80;2252.80;;;;;;5448915;26;20011;-72
2024/04/25 02:36:20;;;;;;;31.88;20.45;;;256.90;2252.80;;;;;;5448897;26;20014;-71
2024/04/25 02:38:45;;;;;;;27.55;20.83;;;256.90;2252.80;;;;;;5448681;26;20014;-77
2024/04/25 02:41:11;;;;;;;29.27;19.98;;;256.90;2252.80;;;;;;5448891;26;20010;-71
2024/04/25 02:43:37;;;;;;;36.35;21.58;;;256.80;2252.80;;;;;;5451868;26;20507;-71
2024/04/25 02:46:04;;;;;;;22.50;16.80;;;256.80;2252.80;;;;;;5466929;26;20011;-71
2024/04/25 02:48:29;;;;;;;22.15;15.15;;;256.70;2252.80;;;;;;5449419;26;20003;-72
2024/04/25 02:50:55;;;;;;;21.90;16.58;;;256.80;2252.80;;;;;;5449058;26;20072;-83
2024/04/25 02:53:24;;;;;;;23.83;15.77;;;256.80;2252.80;;;;;;5448775;26;20002;-71
2024/04/25 02:55:50;;;;;;;29.17;18.75;;;256.70;2252.80;;;;;;5448865;26;20003;-71
2024/04/25 02:58:16;;;;;;;38.88;27.10;;;256.70;2252.80;;;;;;5453666;26;21890;-84
2024/04/25 03:00:42;;;;;;;25.08;16.05;;;256.70;2252.80;;;;;;5449378;26;20521;-71
2024/04/25 03:03:07;;;;;;;22.98;15.38;;;256.80;2252.80;;;;;;5448814;26;20019;-71
2024/04/25 03:05:33;;;;;;;21.05;13.73;;;256.60;2252.80;;;;;;5447261;26;20310;-70
2024/04/25 03:07:59;;;;;;;33.90;22.65;;;256.50;2252.80;;;;;;5448910;26;20550;-76
2024/04/25 03:10:25;;;;;;;24.98;18.48;;;256.60;2252.80;;;;;;5447893;26;19999;-71
2024/04/25 03:12:51;;;;;;;30.52;18.17;;;256.70;2252.80;;;;;;5448800;26;20050;-72
2024/04/25 03:15:16;;;;;;;22.20;15.90;;;256.80;2252.80;;;;;;5447914;26;20341;-70
2024/04/25 03:17:42;;;;;;;17.77;12.65;;;256.80;2252.80;;;;;;5448096;26;19999;-72
2024/04/25 03:20:08;;;;;;;22.42;14.63;;;256.80;2252.80;;;;;;5450038;26;20449;-71
2024/04/25 03:22:34;;;;;;;22.23;15.60;;;256.90;2252.80;;;;;;5449826;26;20014;-70
2024/04/25 03:25:00;;;;;;;25.15;20.25;;;256.90;2252.80;;;;;;5482093;26;19998;-70
2024/04/25 03:27:26;;;;;;;21.30;16.02;;;281.60;2278.40;;;;;;5455631;26;20006;-72
2024/04/25 03:29:53;;;;;;;23.85;16.60;;;256.90;2252.80;;;;;;5449039;26;19999;-71
2024/04/25 03:32:19;;;;;;;24.15;16.50;;;256.90;2252.80;;;;;;5448958;26;20317;-72
2024/04/25 03:34:45;;;;;;;22.98;17.80;;;256.90;2252.80;;;;;;5449624;26;20014;-71
2024/04/25 03:37:11;;;;;;;27.70;18.77;;;256.90;2252.80;;;;;;5449757;26;20003;-75
2024/04/25 03:39:36;;;;;;;27.40;17.27;;;256.70;2252.80;;;;;;5447839;26;20103;-70
2024/04/25 03:42:02;;;;;;;22.63;17.75;;;256.80;2252.80;;;;;;5446321;26;20883;-71
2024/04/25 03:44:28;;;;;;;31.92;20.50;;;256.60;2252.80;;;;;;5449225;26;19999;-72
2024/04/25 03:46:54;;;;;;;27.80;19.17;;;256.60;2252.80;;;;;;5448152;26;20005;-71
2024/04/25 03:49:20;;;;;;;29.92;20.88;;;256.70;2252.80;;;;;;5449309;26;20003;-78
2024/04/25 03:51:46;;;;;;;28.85;19.45;;;256.80;2252.80;;;;;;5447679;26;20469;-71
2024/04/25 03:54:13;;;;;;;33.88;20.38;;;256.60;2252.80;;;;;;5447228;26;20013;-76
2024/04/25 03:56:39;;;;;;;33.15;20.35;;;256.50;2252.80;;;;;;5447569;26;20099;-71
2024/04/25 03:59:05;;;;;;;30.13;20.20;;;256.40;2252.80;;;;;;5448986;26;20006;-82
2024/04/25 04:01:30;;;;;;;32.90;21.77;;;256.20;2252.80;;;;;;5448850;26;20006;-80
2024/04/25 04:03:56;;;;;;;72.10;52.15;;;256.30;2252.80;;;;;;5447583;26;20003;-71
2024/04/25 04:06:22;;;;;;;37.08;23.58;;;256.50;2252.80;;;;;;5449530;26;20011;-77
2024/04/25 04:08:48;;;;;;;33.53;23.83;;;256.50;2252.80;;;;;;5450741;26;20034;-74
2024/04/25 04:11:14;;;;;;;31.17;24.88;;;256.50;2252.80;;;;;;5450878;26;20010;-73
2024/04/25 04:13:40;;;;;;;33.63;21.23;;;256.70;2252.80;;;;;;5465747;26;20859;-71
2024/04/25 04:16:08;;;;;;;27.27;21.02;;;256.80;2252.80;;;;;;5459691;26;19999;-71
2024/04/25 04:18:34;;;;;;;29.17;20.08;;;256.70;2252.80;;;;;;5452954;26;19998;-73
2024/04/25 04:21:00;;;;;;;30.83;20.98;;;256.70;2252.80;;;;;;5456850;26;20013;-72
2024/04/25 04:23:26;;;;;;;33.45;22.45;;;256.90;2252.80;;;;;;5455201;26;20075;-71
2024/04/25 04:25:52;;;;;;;26.50;19.90;;;256.90;2252.80;;;;;;5452222;26;19995;-70
2024/04/25 04:28:18;;;;;;;28.45;21.17;;;256.80;2252.80;;;;;;5451905;26;20010;-69
2024/04/25 04:30:44;;;;;;;33.97;23.30;;;256.50;2252.80;;;;;;5453418;26;20017;-71
2024/04/25 04:33:09;;;;;;;28.90;21.05;;;256.70;2252.80;;;;;;5454192;26;20067;-71
2024/04/25 04:35:35;;;;;;;29.40;19.48;;;256.70;2252.80;;;;;;5454496;26;20002;-79
2024/04/25 04:38:01;;;;;;;27.02;19.58;;;256.70;2252.80;;;;;;5454795;26;20047;-70
2024/04/25 04:40:27;;;;;;;35.55;19.55;;;256.60;2252.80;;;;;;5463603;26;20006;-72
2024/04/25 04:42:53;;;;;;;24.15;16.77;;;256.40;2252.80;;;;;;5468013;26;20052;-78
2024/04/25 04:45:19;;;;;;;27.48;18.92;;;256.40;2252.80;;;;;;5464363;26;20014;-70
2024/04/25 04:47:45;;;;;;;26.70;18.55;;;256.50;2252.80;;;;;;5466751;26;19999;-81
2024/04/25 04:50:18;;;;;;;28.40;19.17;;;256.50;2252.80;;;;;;5465781;26;20001;-76
2024/04/25 04:52:43;;;;;;;32.78;23.75;;;256.40;2252.80;;;;;;5466841;26;21199;-70
2024/04/25 04:55:09;;;;;;;33.67;23.77;;;256.20;2252.80;;;;;;5454991;26;19999;-71
2024/04/25 04:57:35;;;;;;;31.23;24.75;;;256.50;2252.80;;;;;;5449905;26;20014;-71
2024/04/25 05:00:01;;;;;;;24.42;17.88;;;256.40;2252.80;;;;;;5449828;26;20416;-70
2024/04/25 05:02:27;;;;;;;24.23;17.17;;;256.40;2252.80;;;;;;5451460;26;20414;-71
2024/04/25 05:04:53;;;;;;;24.38;20.73;;;256.40;2252.80;;;;;;5450684;26;20011;-71
2024/04/25 05:07:18;;;;;;;21.00;16.23;;;256.40;2252.80;;;;;;5452320;26;20118;-72
2024/04/25 05:09:44;;;;;;;29.73;17.77;;;256.50;2252.80;;;;;;5451229;26;20007;-82
2024/04/25 05:12:10;;;;;;;30.23;22.50;;;256.60;2252.80;;;;;;5468457;26;20007;-80
2024/04/25 05:14:36;;;;;;;30.45;22.65;;;256.60;2252.80;;;;;;5467904;26;20047;-78
2024/04/25 05:19:27;;;;;;;29.73;20.50;;;256.80;2252.80;;;;;;5554682;21;19990;-78
2024/04/25 05:21:54;;;;;;;24.52;17.85;;;256.70;2252.80;;;;;;5502679;26;20351;-83
2024/04/25 05:24:20;;;;;;;22.65;16.63;;;256.70;2252.80;;;;;;5501544;26;19994;-71
2024/04/25 05:26:46;;;;;;;35.20;22.88;;;256.80;2252.80;;;;;;5489081;26;19998;-71
2024/04/25 05:29:12;;;;;;;35.08;24.42;;;256.90;2252.80;;;;;;5486917;26;19998;-71
2024/04/25 05:31:39;;;;;;;32.95;24.25;;;256.70;2252.80;;;;;;5488078;26;20331;-71
2024/04/25 05:34:05;;;;;;;39.70;24.42;;;256.70;2252.80;;;;;;5488138;26;20520;-71
2024/04/25 05:36:31;;;;;;;29.65;19.20;;;256.70;2252.80;;;;;;5488505;26;20006;-71
2024/04/25 05:38:57;;;;;;;31.45;22.15;;;256.60;2252.80;;;;;;5485365;26;20005;-71
2024/04/25 05:41:23;;;;;;;24.65;18.38;;;256.50;2252.80;;;;;;5465849;26;20004;-71
2024/04/25 05:43:49;;;;;;;27.23;18.92;;;256.40;2252.80;;;;;;5486601;26;19994;-71
2024/04/25 05:46:15;;;;;;;36.55;24.52;;;256.50;2252.80;;;;;;5490062;26;19994;-73
2024/04/25 05:48:42;;;;;;;32.70;22.88;;;256.60;2252.80;;;;;;5488550;26;20053;-71
2024/04/25 05:51:08;;;;;;;37.85;25.38;;;256.70;2252.80;;;;;;5488926;26;20006;-72
2024/04/25 05:53:33;;;;;;;32.20;21.50;;;256.70;2252.80;;;;;;5487910;26;20008;-72
2024/04/25 05:55:59;;;;;;;35.53;24.38;;;256.70;2252.80;;;;;;5500046;26;19998;-80
2024/04/25 05:58:25;;;;;;;32.40;22.27;;;256.70;2252.80;;;;;;5503920;26;19997;-82
2024/04/25 06:00:51;;;;;;;24.48;18.10;;;256.80;2252.80;;;;;;5503794;26;19998;-81
2024/04/25 06:03:17;;;;;;;32.42;19.30;;;256.70;2252.80;;;;;;5508961;21;20042;-80
2024/04/25 06:05:43;;;;;;;33.40;24.42;;;256.70;2252.80;;;;;;5468278;26;20003;-84
2024/04/25 06:08:08;;;;;;;67.13;34.15;;;256.70;2252.80;;;;;;5477764;21;20013;-77
2024/04/25 06:10:34;;;;;;;93.68;50.38;;;256.70;2252.80;;;;;;5470141;26;20007;-71
2024/04/25 06:13:00;;;;;;;38.58;23.40;;;256.70;2252.80;;;;;;5474482;26;19998;-70
2024/04/25 06:15:26;;;;;;;21.83;16.88;;;256.80;2252.80;;;;;;5484131;26;20459;-82
2024/04/25 06:17:53;;;;;;;27.80;19.15;;;281.60;2278.40;;;;;;5449996;26;20002;-70
2024/04/25 06:20:20;;;;;;;23.85;18.13;;;281.60;2278.40;;;;;;5451022;26;20010;-71
2024/04/25 06:22:46;;;;;;;26.45;18.65;;;281.60;2278.40;;;;;;5443568;26;20002;-72
2024/04/25 06:25:12;;;;;;;26.08;18.30;;;256.90;2252.80;;;;;;5447460;26;19999;-72
2024/04/25 06:27:38;;;;;;;25.83;18.27;;;281.60;2278.40;;;;;;5444811;26;20032;-75
2024/04/25 06:30:05;;;;;;;25.27;18.35;;;256.90;2252.80;;;;;;5447523;26;19999;-71
2024/04/25 06:32:30;;;;;;;26.65;16.98;;;281.70;2278.40;;;;;;5446038;26;20329;-72
2024/04/25 06:34:56;;;;;;;23.30;17.88;;;281.70;2278.40;;;;;;5446190;26;20009;-73
2024/04/25 06:37:22;;;;;;;36.50;24.75;;;281.60;2278.40;;;;;;5446295;26;20010;-73
2024/04/25 06:39:51;;;;;;;38.35;24.63;;;281.60;2278.40;;;;;;5446536;26;20049;-74
2024/04/25 06:42:16;;;;;;;47.97;34.65;;;256.90;2252.80;;;;;;5445922;26;20010;-72
2024/04/25 06:44:42;;;;;;;38.20;27.42;;;256.90;2252.80;;;;;;5446803;26;19995;-75
2024/04/25 06:47:10;;;;;;;34.45;23.95;;;256.90;2252.80;;;;;;5446664;26;20011;-72
2024/04/25 06:49:36;;;;;;;31.80;22.02;;;256.90;2252.80;;;;;;5443535;26;20070;-73
2024/04/25 06:52:02;;;;;;;51.50;33.22;;;256.70;2252.80;;;;;;5446479;26;20524;-74
2024/04/25 06:54:28;;;;;;;34.70;25.15;;;256.90;2252.80;;;;;;5442705;26;20441;-74
2024/04/25 06:56:54;;;;;;;42.15;28.13;;;256.90;2252.80;;;;;;5426948;26;20027;-72
2024/04/25 06:59:20;;;;;;;27.35;20.20;;;256.90;2252.80;;;;;;5442724;26;19999;-72
2024/04/25 07:01:49;;;;;;;295.48;168.52;;;256.90;2252.80;;;;;;5446709;26;19994;-72
2024/04/25 07:04:16;;;;;;;108.90;69.10;;;256.80;2252.80;;;;;;5444901;26;20461;-72
2024/04/25 07:06:42;;;;;;;199.18;128.57;;;256.60;2252.80;;;;;;5441676;26;20010;-71
2024/04/25 07:09:08;;;;;;;149.35;104.00;;;256.80;2252.80;;;;;;5445201;26;20006;-72
2024/04/25 07:11:37;;;;;;;134.70;92.18;;;256.90;2252.80;;;;;;5446917;26;20010;-76
2024/04/25 07:14:03;;;;;;;63.78;42.00;;;281.70;2278.40;;;;;;5445686;26;20131;-77
2024/04/25 07:16:29;;;;;;;24.60;16.98;;;281.70;2278.40;;;;;;5445981;26;20013;-75
2024/04/25 07:18:55;;;;;;;235.50;160.05;;;281.60;2278.40;;;;;;5424730;26;20003;-74
2024/04/25 07:21:27;;;;;;;252.48;176.73;;;281.60;2278.40;;;;;;5444262;26;20007;-74
2024/04/25 07:23:55;;;;;;;61.83;44.88;;;281.70;2278.40;;;;;;5446150;26;20014;-75
2024/04/25 07:26:22;;;;;;;35.55;28.48;;;282.00;2278.40;;;;;;5444388;26;20043;-76
2024/04/25 07:28:49;;;;;;;72.38;51.67;;;281.80;2278.40;;;;;;5445045;26;20444;-74
2024/04/25 07:31:14;;;;;;;55.78;45.22;;;281.70;2278.40;;;;;;5445574;26;20003;-76
2024/04/25 07:33:40;;;;;;;34.60;27.63;;;256.90;2252.80;;;;;;5444219;26;20456;-75
2024/04/25 07:36:06;;;;;;;23.85;19.83;;;281.70;2278.40;;;;;;5445934;26;20007;-75
2024/04/25 07:38:32;;;;;;;23.27;19.85;;;281.80;2278.40;;;;;;5444768;26;20022;-76
2024/04/25 07:40:58;;;;;;;22.77;20.40;;;282.10;2278.40;;;;;;5414421;26;20013;-73
2024/04/25 07:43:24;;;;;;;26.58;23.73;;;282.10;2278.40;;;;;;5445016;26;20002;-73
2024/04/25 07:45:49;;;;;;;21.73;16.13;;;282.40;2278.40;;;;;;5445658;26;19999;-73
2024/04/25 07:48:15;;;;;;;21.58;15.93;;;282.50;2278.40;;;;;;5444576;26;20343;-72
2024/04/25 07:50:41;;;;;;;25.95;19.35;;;282.50;2278.40;;;;;;5445641;26;20007;-72
2024/04/25 07:53:07;;;;;;;44.67;37.97;;;307.30;2304.00;;;;;;5445394;26;20395;-73
2024/04/25 07:55:33;;;;;;;23.10;18.63;;;307.60;2304.00;;;;;;5449836;26;20003;-72
2024/04/25 07:57:59;;;;;;;32.70;24.38;;;307.80;2304.00;;;;;;5448315;26;20444;-72
2024/04/25 08:00:24;;;;;;;30.85;23.08;;;308.00;2304.00;;;;;;5449711;26;20003;-73
2024/04/25 08:02:50;;;;;;;21.45;16.45;;;308.10;2304.00;;;;;;5415742;26;19999;-72
2024/04/25 08:05:16;;;;;;;26.25;15.82;;;307.90;2304.00;;;;;;5449826;26;19995;-72
2024/04/25 08:07:42;;;;;;;20.58;15.70;;;307.60;2304.00;;;;;;5447399;26;19995;-74
2024/04/25 08:10:08;;;;;;;22.48;17.27;;;307.40;2304.00;;;;;;5449312;26;19991;-73
2024/04/25 08:12:35;;;;;;;20.75;18.45;;;307.60;2304.00;;;;;;5448846;26;19999;-73
2024/04/25 08:15:01;;;;;;;26.00;20.42;;;307.70;2304.00;;;;;;5449518;26;20338;-73
2024/04/25 08:17:27;;;;;;;33.95;24.52;;;307.80;2304.00;;;;;;5450239;26;20040;-75
2024/04/25 08:19:54;;;;;;;35.05;27.08;;;307.90;2304.00;;;;;;5438832;26;20011;-72
2024/04/25 08:22:22;;;;;;;33.15;22.13;;;307.70;2304.00;;;;;;5447163;26;20014;-73
2024/04/25 08:24:49;;;;;;;22.92;15.95;;;307.80;2304.00;;;;;;5448960;26;20003;-73
2024/04/25 08:27:15;;;;;;;37.75;25.60;;;307.90;2304.00;;;;;;5449339;26;20013;-76
2024/04/25 08:29:41;;;;;;;27.73;22.95;;;307.90;2304.00;;;;;;5450300;26;20333;-75
2024/04/25 08:32:07;;;;;;;29.67;21.30;;;307.80;2304.00;;;;;;5449968;26;20006;-71
2024/04/25 08:34:33;;;;;;;56.38;38.35;;;307.80;2304.00;;;;;;5449505;26;20013;-73
2024/04/25 08:36:59;;;;;;;35.55;26.23;;;;;;;;;;5449299;26;20437;-75
2024/04/25 08:39:28;;;;;;;31.10;24.50;;;;;;;;;;5451328;26;20514;-75
2024/04/25 08:41:54;;;;;;;112.93;72.50;;;;;;;;;;5449171;26;20013;-75
2024/04/25 08:44:21;;;;;;;23.48;19.83;;;;;;;;;;5448333;26;20395;-75
2024/04/25 08:46:48;;;;;;;83.93;59.33;;;;;;;;;;5447865;26;19999;-77
2024/04/25 08:49:19;;;;;;;46.83;34.22;;;;;;;;;;5448864;26;20518;-76
2024/04/25 08:51:46;;;;;;;147.65;100.55;;;;;;;;;;5449808;26;20562;-77
2024/04/25 08:54:16;;;;;;;21.95;15.52;;;;;;;;;;5448497;26;20018;-76
2024/04/25 08:56:42;;;;;;;32.13;23.42;;;;;;;;;;5447952;26;20445;-75
2024/04/25 08:59:08;;;;;;;44.38;33.90;;;;;;;;;;5448721;26;20010;-77
2024/04/25 09:01:35;;;;;;;41.83;26.13;;;;;;;;;;5447786;26;20014;-74
2024/04/25 09:04:03;;;;;;;237.40;103.60;;;;;;;;;;5446066;26;20014;-75
2024/04/25 09:06:29;;;;;;;40.50;24.63;;;332.80;2329.60;;;;;;5444636;26;20775;-75
2024/04/25 09:08:55;;;;;;;58.25;34.10;;;308.00;2304.00;;;;;;5447841;26;20002;-76
2024/04/25 09:11:21;;;;;;;156.57;74.50;;;308.10;2304.00;;;;;;5444886;26;20135;-72
2024/04/25 09:13:54;;;;;;;100.18;50.55;;;308.10;2304.00;;;;;;5447843;26;20003;-76
2024/04/25 09:16:20;;;;;;;30.02;22.85;;;332.90;2329.60;;;;;;5447818;26;20018;-75
2024/04/25 09:18:49;;;;;;;33.17;21.20;;;308.10;2304.00;;;;;;5448651;26;20027;-73
2024/04/25 09:21:15;;;;;;;29.48;20.75;;;308.10;2304.00;;;;;;5444775;26;19991;-72
2024/04/25 09:23:42;;;;;;;103.05;52.80;;;332.90;2329.60;;;;;;5445491;26;20321;-73
2024/04/25 09:26:13;;;;;;;139.20;71.07;;;332.80;2329.60;;;;;;5447547;26;20013;-71
2024/04/25 09:28:40;;;;;;;65.43;37.60;;;332.90;2329.60;;;;;;5445813;26;19994;-76
2024/04/25 09:31:07;;;;;;;164.63;86.38;;;308.00;2304.00;;;;;;5446897;26;20321;-73
2024/04/25 09:33:32;;;;;;;81.95;44.08;;;308.10;2304.00;;;;;;5445739;26;19998;-72
2024/04/25 09:35:59;;;;;;;31.13;21.85;;;332.80;2329.60;;;;;;5445211;26;20356;-73
2024/04/25 09:38:25;;;;;;;25.30;20.23;;;308.10;2304.00;;;;;;5446602;26;20085;-72
2024/04/25 09:40:52;;;;;;;55.28;36.78;;;332.80;2329.60;;;;;;5446684;26;19999;-75
2024/04/25 09:43:21;;;;;;;68.28;37.63;;;308.00;2304.00;;;;;;5446126;26;20015;-76
2024/04/25 09:45:48;;;;;;;44.25;30.40;;;332.90;2329.60;;;;;;5445613;26;20051;-76
2024/04/25 09:48:17;;;;;;;33.00;22.98;;;333.10;2329.60;;;;;;5445494;26;20067;-76
2024/04/25 09:50:49;;;;;;;50.47;32.30;;;333.10;2329.60;;;;;;5446636;26;20013;-76
2024/04/25 09:53:39;;;;;;;68.10;39.95;;;333.20;2329.60;;;;;;5445859;26;20003;-75
2024/04/25 09:56:06;;;;;;;33.38;21.67;;;333.70;2329.60;;;;;;5433420;26;20009;-73
2024/04/25 09:58:38;;;;;;;275.67;145.98;;;358.50;2329.60;;;;;;5445855;26;20433;-73
2024/04/25 10:01:05;;;;;;;223.18;115.47;;;358.50;2329.60;;;;;;5445184;26;19995;-72
2024/04/25 10:03:31;;;;;;;52.58;33.78;;;358.70;2329.60;;;;;;5446191;26;20071;-73
2024/04/25 10:05:59;;;;;;;31.08;22.67;;;358.80;2329.60;;;;;;5445350;26;20425;-75
2024/04/25 10:08:26;;;;;;;26.55;20.33;;;358.80;2329.60;;;;;;5444881;26;20045;-71
2024/04/25 10:10:52;;;;;;;25.58;19.60;;;358.70;2329.60;;;;;;5445871;26;20002;-73
2024/04/25 10:13:24;;;;;;;31.52;23.13;;;358.80;2329.60;;;;;;5445812;26;20414;-73
2024/04/25 10:15:51;;;;;;;26.52;19.95;;;359.00;2329.60;;;;;;5444901;26;20023;-72
2024/04/25 10:18:17;;;;;;;31.65;21.75;;;359.00;2329.60;;;;;;5447003;26;20041;-72
2024/04/25 10:20:43;;;;;;;30.00;23.15;;;358.80;2329.60;;;;;;5447839;26;20013;-75
2024/04/25 10:23:11;;;;;;;30.92;24.45;;;358.70;2329.60;;;;;;5446243;26;19999;-73
2024/04/25 10:25:37;;;;;;;31.33;23.27;;;358.90;2329.60;;;;;;5447264;26;19995;-72
2024/04/25 10:28:04;;;;;;;30.50;23.27;;;358.90;2329.60;;;;;;5446680;26;20005;-77
2024/04/25 10:30:32;;;;;;;29.15;20.92;;;359.00;2329.60;;;;;;5447208;26;20350;-77
2024/04/25 10:33:00;;;;;;;27.33;22.17;;;;;;;;;;5443905;26;19998;-75
2024/04/25 10:35:26;;;;;;;30.30;24.08;;;;;;;;;;5436551;26;20010;-76
2024/04/25 10:37:55;;;;;;;57.10;34.35;;;;;;;;;;5445725;26;20009;-77
2024/04/25 10:40:22;;;;;;;45.58;31.67;;;;;;;;;;5447649;26;20364;-76
2024/04/25 10:43:00;;;;;;;90.88;53.38;;;409.60;2355.20;;;;;;5446328;26;20007;-74
2024/04/25 10:45:28;;;;;;;33.78;23.75;;;409.70;2355.20;;;;;;5446677;26;19999;-75
2024/04/25 10:47:54;;;;;;;87.05;53.38;;;409.90;2355.20;;;;;;5446463;26;20015;-76
2024/04/25 10:50:20;;;;;;;34.85;26.38;;;409.90;2355.20;;;;;;5446359;26;20382;-76
2024/04/25 10:52:47;;;;;;;36.28;28.35;;;410.20;2355.20;;;;;;5446856;26;20009;-75
2024/04/25 10:55:13;;;;;;;33.47;23.30;;;435.30;2355.20;;;;;;5446653;26;20002;-74
2024/04/25 10:57:39;;;;;;;39.25;30.48;;;435.30;2355.20;;;;;;5446023;26;20430;-73
2024/04/25 11:00:07;;;;;;;30.08;22.08;;;435.30;2355.20;;;;;;5446443;26;20011;-72
2024/04/25 11:02:37;;;;;;;47.45;34.42;;;435.40;2278.40;;;;;;5446594;26;19999;-73
2024/04/25 11:05:04;;;;;;;43.20;27.02;;;435.30;2304.00;;;;;;5446101;26;20010;-73
2024/04/25 11:07:30;;;;;;;39.97;29.63;;;435.40;2252.80;;;;;;5446457;26;20079;-73
2024/04/25 11:09:56;;;;;;;32.30;25.63;;;435.60;2304.00;;;;;;5445834;26;20014;-72
2024/04/25 11:12:22;;;;;;;61.95;48.35;;;435.80;2201.60;;;;;;5446483;26;20018;-77
2024/04/25 11:14:48;;;;;;;37.55;30.55;;;436.10;2176.00;;;;;;5445281;26;20010;-76
2024/04/25 11:17:15;;;;;;;28.02;22.55;;;460.80;2227.20;;;;;;5446845;26;20467;-76
2024/04/25 11:19:45;;;;;;;34.17;26.95;;;461.10;2150.40;;;;;;5445230;26;19999;-77
2024/04/25 11:22:11;;;;;;;29.23;23.17;;;460.90;2176.00;;;;;;5446516;26;20002;-76
2024/04/25 11:24:37;;;;;;;33.72;27.25;;;460.80;2201.60;;;;;;5442923;26;20514;-76
2024/04/25 11:27:03;;;;;;;42.72;32.70;;;436.00;2201.60;;;;;;5445086;26;20642;-76
2024/04/25 11:29:30;;;;;;;28.58;24.00;;;436.10;2227.20;;;;;;5448641;26;20006;-73
2024/04/25 11:31:56;;;;;;;26.75;22.70;;;435.90;2278.40;;;;;;5450134;26;19995;-72
2024/04/25 11:34:24;;;;;;;29.83;23.17;;;410.50;2278.40;;;;;;5448074;26;20027;-72
2024/04/25 11:36:56;;;;;;;27.13;23.00;;;435.50;2278.40;;;;;;5449587;26;20456;-73
2024/04/25 11:39:22;;;;;;;25.88;21.20;;;435.60;2252.80;;;;;;5448591;26;20002;-73
2024/04/25 11:41:48;;;;;;;152.50;108.53;;;435.50;2278.40;;;;;;5449636;26;20003;-75
2024/04/25 11:44:15;;;;;;;35.42;20.60;;;435.30;2304.00;;;;;;5449066;26;20006;-77
2024/04/25 11:46:41;;;;;;;21.52;18.50;;;410.50;2329.60;;;;;;5449093;26;20089;-77
2024/04/25 11:49:07;;;;;;;21.60;18.02;;;435.30;2355.20;;;;;;5448798;26;20495;-76
2024/04/25 11:51:33;;;;;;;19.30;16.92;;;435.30;2278.40;;;;;;5449245;26;20472;-77
2024/04/25 11:53:59;;;;;;;21.55;16.88;;;435.30;2278.40;;;;;;5448818;26;20014;-76
2024/04/25 11:56:28;;;;;;;176.35;89.85;;;435.50;2201.60;;;;;;5447987;26;20009;-74
2024/04/25 11:58:54;;;;;;;154.45;80.47;;;435.50;2176.00;;;;;;5449307;26;19999;-76
2024/04/25 12:01:20;;;;;;;64.28;41.55;;;435.80;2227.20;;;;;;5449340;26;20018;-77
2024/04/25 12:03:46;;;;;;;117.00;58.90;;;435.80;2252.80;;;;;;5448958;26;20052;-75
2024/04/25 12:06:12;;;;;;;58.33;36.75;;;436.10;2176.00;;;;;;5448410;26;20363;-75
2024/04/25 12:08:40;;;;;;;412.95;293.75;;;435.70;2150.40;;;;;;5447983;26;20003;-76